createdAt,value
2023-06-30T00:02:06.689Z,71.55
2023-06-30T00:04:40.148Z,71.88
2023-06-30T00:07:13.892Z,72.01
2023-06-30T00:09:46.504Z,72.23
2023-06-30T00:12:19.655Z,72.55
2023-06-30T00:14:52.369Z,72.87
2023-06-30T00:17:25.937Z,72.73
2023-06-30T00:20:00.723Z,73.02
2023-06-30T00:22:33.768Z,73.29
2023-06-30T00:25:06.997Z,73.38
2023-06-30T00:27:39.293Z,73.28
2023-06-30T00:30:13.548Z,73.44
2023-06-30T00:32:47.512Z,73.69
2023-06-30T00:35:19.853Z,73.90
2023-06-30T00:37:53.264Z,74.21
2023-06-30T00:40:26.080Z,74.10
2023-06-30T00:43:00.085Z,74.44
2023-06-30T00:45:32.901Z,74.50
2023-06-30T00:48:05.697Z,74.38
2023-06-30T00:50:38.630Z,74.09
2023-06-30T00:53:11.123Z,73.96
2023-06-30T00:55:45.870Z,74.21
2023-06-30T00:58:20.085Z,74.13
2023-06-30T01:00:58.794Z,73.93
2023-06-30T01:03:38.349Z,73.50
2023-06-30T01:06:38.874Z,73.43
2023-06-30T01:09:15.973Z,73.68
2023-06-30T01:11:55.430Z,74.00
2023-06-30T02:09:38.666Z,75.66
2023-06-30T02:12:20.670Z,75.50
2023-06-30T02:14:53.093Z,75.49
2023-06-30T02:17:32.762Z,75.66
2023-06-30T02:20:07.631Z,75.58
2023-06-30T02:22:40.520Z,75.87
2023-06-30T02:25:13.129Z,75.93
2023-06-30T02:27:47.144Z,76.24
2023-06-30T02:30:24.161Z,75.97
2023-06-30T02:32:56.839Z,75.85
2023-06-30T02:35:29.468Z,75.68
2023-06-30T02:38:01.680Z,75.64
2023-06-30T02:40:34.327Z,75.62
2023-06-30T02:43:06.861Z,75.99
2023-06-30T02:45:39.343Z,76.02
2023-06-30T02:48:11.585Z,76.18
2023-06-30T02:50:45.784Z,76.01
2023-06-30T02:53:19.916Z,76.18
2023-06-30T02:55:52.447Z,76.37
2023-06-30T02:58:24.897Z,76.32
2023-06-30T03:00:57.810Z,76.15
2023-06-30T03:03:30.505Z,76.46
2023-06-30T03:06:02.984Z,76.77
2023-06-30T03:08:37.262Z,76.70
2023-06-30T03:11:09.975Z,76.62
2023-06-30T03:13:42.807Z,76.73
2023-06-30T03:16:15.562Z,76.58
2023-06-30T03:18:47.925Z,76.67
2023-06-30T03:21:20.865Z,76.87
2023-06-30T03:23:53.162Z,76.91
2023-06-30T03:26:25.536Z,77.34
2023-06-30T03:28:57.917Z,76.96
2023-06-30T03:31:30.217Z,77.12
2023-06-30T03:34:02.828Z,77.51
2023-06-30T03:36:35.113Z,77.49
2023-06-30T03:39:07.558Z,77.65
2023-06-30T03:41:40.397Z,77.93
2023-06-30T03:44:15.310Z,77.45
2023-06-30T03:46:48.125Z,77.37
2023-06-30T03:49:20.787Z,77.34
2023-06-30T03:51:53.230Z,77.23
2023-06-30T03:54:25.816Z,77.26
2023-06-30T03:56:58.580Z,77.56
2023-06-30T03:59:31.009Z,77.44
2023-06-30T04:02:03.349Z,77.54
2023-06-30T04:04:36.109Z,77.68
2023-06-30T04:07:09.368Z,78.01
2023-06-30T04:09:41.820Z,78.15
2023-06-30T04:12:14.516Z,77.99
2023-06-30T04:14:47.587Z,77.64
2023-06-30T04:17:19.865Z,77.64
2023-06-30T04:19:52.955Z,77.74
2023-06-30T04:22:25.607Z,77.87
2023-06-30T04:24:58.434Z,78.25
2023-06-30T04:27:30.712Z,78.13
2023-06-30T04:30:02.976Z,78.35
2023-06-30T04:32:35.504Z,78.11
2023-06-30T04:35:09.247Z,78.28
2023-06-30T04:37:42.456Z,78.83
2023-06-30T04:40:14.800Z,78.94
2023-06-30T04:42:47.224Z,79.18
2023-06-30T04:45:19.793Z,76.52
2023-06-30T04:47:52.183Z,76.10
2023-06-30T04:50:26.417Z,74.35
2023-06-30T04:52:58.725Z,75.47
2023-06-30T04:55:31.609Z,75.76
2023-06-30T04:58:04.013Z,75.83
2023-06-30T05:00:36.725Z,75.69
2023-06-30T05:03:09.169Z,75.21
2023-06-30T05:05:41.428Z,74.85
2023-06-30T05:08:15.534Z,74.94
2023-06-30T05:10:47.833Z,75.07
2023-06-30T05:13:20.776Z,75.11
2023-06-30T05:15:53.701Z,74.50
2023-06-30T05:18:26.517Z,75.37
2023-06-30T05:20:58.978Z,73.81
2023-06-30T05:23:31.403Z,74.37
2023-06-30T05:26:03.574Z,74.85
2023-06-30T05:28:38.044Z,74.34
2023-06-30T05:31:10.512Z,73.59
2023-06-30T05:33:42.538Z,74.32
2023-06-30T05:36:14.794Z,74.27
2023-06-30T05:38:48.015Z,74.51
2023-06-30T05:41:20.370Z,75.01
2023-06-30T05:43:52.698Z,74.10
2023-06-30T05:46:25.511Z,73.02
2023-06-30T05:48:57.500Z,72.52
2023-06-30T05:51:29.807Z,72.92
2023-06-30T05:54:02.259Z,72.66
2023-06-30T05:56:34.958Z,72.44
2023-06-30T05:59:10.741Z,72.99
2023-06-30T06:01:43.405Z,73.28
2023-06-30T06:04:15.766Z,73.72
2023-06-30T06:06:48.391Z,74.20
2023-06-30T06:09:20.687Z,74.35
2023-06-30T06:11:53.041Z,73.44
2023-06-30T06:14:25.427Z,73.73
2023-06-30T06:16:58.026Z,73.56
2023-06-30T06:19:30.399Z,74.57
2023-06-30T06:22:02.875Z,74.54
2023-06-30T06:24:35.188Z,73.64
2023-06-30T06:27:08.390Z,73.16
2023-06-30T06:29:40.968Z,74.49
2023-06-30T06:32:13.395Z,74.23
2023-06-30T06:34:45.732Z,74.35
2023-06-30T06:37:19.041Z,74.33
2023-06-30T06:39:51.544Z,72.50
2023-06-30T06:42:23.935Z,71.23
2023-06-30T06:44:56.200Z,72.45
2023-06-30T06:48:03.245Z,72.66
2023-06-30T06:50:35.665Z,70.14
2023-06-30T06:53:08.165Z,69.87
2023-06-30T06:55:41.023Z,69.65
2023-06-30T06:58:13.070Z,68.74
2023-06-30T07:00:46.720Z,68.14
2023-06-30T07:03:20.430Z,67.59
2023-06-30T07:05:52.925Z,67.96
2023-06-30T07:08:25.544Z,68.15
2023-06-30T07:10:58.371Z,67.62
2023-06-30T07:13:30.724Z,68.11
2023-06-30T07:16:03.392Z,69.41
2023-06-30T07:18:36.198Z,69.13
2023-06-30T07:21:08.661Z,67.39
2023-06-30T07:23:40.854Z,68.22
2023-06-30T07:26:13.244Z,69.19
2023-06-30T07:28:48.351Z,67.50
2023-06-30T07:31:20.867Z,66.07
2023-06-30T07:33:53.156Z,66.68
2023-06-30T07:36:25.350Z,66.60
2023-06-30T07:38:58.031Z,66.27
2023-06-30T07:41:36.789Z,67.74
2023-06-30T07:44:10.381Z,66.53
2023-06-30T07:46:42.848Z,66.53
2023-06-30T07:49:15.437Z,69.05
2023-06-30T07:51:48.267Z,70.12
2023-06-30T07:54:20.896Z,69.80
2023-06-30T07:56:53.015Z,66.25
2023-06-30T07:59:25.353Z,64.68
2023-06-30T08:01:57.508Z,66.85
2023-06-30T08:04:29.830Z,66.09
2023-06-30T08:07:02.394Z,67.45
2023-06-30T08:09:34.626Z,66.87
2023-06-30T08:12:07.878Z,64.85
2023-06-30T08:14:40.110Z,67.48
2023-06-30T08:17:12.412Z,67.34
2023-06-30T08:19:55.062Z,67.92
2023-06-30T08:22:27.407Z,67.24
2023-06-30T08:25:01.032Z,66.17
2023-06-30T08:27:33.392Z,66.24
2023-06-30T08:30:08.690Z,66.63
2023-06-30T08:32:41.083Z,66.50
2023-06-30T08:35:13.814Z,66.56
2023-06-30T08:37:48.032Z,66.21
2023-06-30T08:40:27.824Z,65.07
2023-06-30T08:43:05.308Z,65.00
2023-06-30T08:45:37.869Z,65.88
2023-06-30T08:48:10.948Z,67.15
2023-06-30T08:50:44.335Z,67.08
2023-06-30T08:53:19.464Z,66.31
2023-06-30T08:55:52.442Z,67.12
2023-06-30T08:58:26.513Z,66.33
2023-06-30T09:00:59.618Z,66.92
2023-06-30T09:03:32.932Z,66.74
2023-06-30T09:06:05.913Z,68.33
2023-06-30T09:08:47.780Z,67.77
2023-06-30T09:11:21.611Z,66.18
2023-06-30T09:13:55.892Z,64.25
2023-06-30T09:16:28.066Z,62.45
2023-06-30T09:19:00.884Z,62.25
2023-06-30T09:21:33.638Z,61.16
2023-06-30T09:24:06.047Z,63.62
2023-06-30T09:26:38.587Z,63.49
2023-06-30T09:29:16.140Z,63.19
2023-06-30T09:31:51.761Z,61.92
2023-06-30T09:34:24.900Z,63.12
2023-06-30T09:36:57.861Z,63.05
2023-06-30T09:39:30.264Z,63.61
2023-06-30T09:42:02.640Z,63.24
2023-06-30T09:44:41.596Z,63.85
2023-06-30T09:47:14.508Z,66.03
2023-06-30T09:49:47.453Z,65.74
2023-06-30T09:52:27.660Z,65.60
2023-06-30T09:54:59.962Z,65.29
2023-06-30T09:57:32.783Z,67.87
2023-06-30T10:00:06.003Z,65.50
2023-06-30T10:02:38.791Z,65.55
2023-06-30T10:05:11.680Z,66.23
2023-06-30T10:07:44.122Z,68.26
2023-06-30T10:10:16.710Z,65.50
2023-06-30T10:12:51.161Z,63.89
2023-06-30T10:15:23.659Z,64.90
2023-06-30T10:17:59.542Z,65.05
2023-06-30T10:20:46.480Z,64.40
2023-06-30T10:23:25.069Z,67.68
2023-06-30T10:25:58.814Z,68.29
2023-06-30T10:28:31.161Z,65.99
2023-06-30T10:31:03.673Z,66.45
2023-06-30T10:33:35.939Z,64.37
2023-06-30T10:36:10.130Z,64.51
2023-06-30T10:38:44.698Z,64.19
2023-06-30T10:41:20.667Z,63.55
2023-06-30T10:44:13.065Z,62.73
2023-06-30T10:46:48.423Z,64.27
2023-06-30T10:49:23.859Z,64.45
2023-06-30T10:51:58.911Z,63.20
2023-06-30T10:54:32.569Z,61.86
2023-06-30T10:57:12.907Z,62.28
2023-06-30T10:59:47.315Z,60.78
2023-06-30T11:02:25.800Z,60.39
2023-06-30T11:05:19.822Z,61.25
2023-06-30T11:07:53.989Z,61.80
2023-06-30T11:10:37.945Z,62.31
2023-06-30T11:13:11.647Z,63.07
2023-06-30T11:15:53.451Z,62.44
2023-06-30T11:18:27.282Z,62.58
2023-06-30T11:21:03.523Z,63.82
2023-06-30T11:23:38.769Z,64.58
2023-06-30T11:26:17.551Z,63.31
2023-06-30T11:28:51.187Z,64.54
2023-06-30T11:31:23.665Z,63.49
2023-06-30T11:33:57.098Z,63.22
2023-06-30T11:36:33.985Z,64.17
2023-06-30T11:39:06.387Z,62.19
2023-06-30T11:41:38.789Z,64.33
2023-06-30T11:44:13.237Z,62.78
2023-06-30T11:46:45.603Z,61.36
2023-06-30T11:49:18.010Z,61.69
2023-06-30T11:51:50.869Z,62.70
2023-06-30T11:54:32.731Z,61.55
2023-06-30T11:57:06.102Z,61.45
2023-06-30T11:59:38.560Z,60.53
2023-06-30T12:02:14.819Z,58.94
2023-06-30T12:04:51.704Z,59.36
2023-06-30T12:07:25.003Z,58.75
2023-06-30T12:10:07.064Z,58.51
2023-06-30T12:12:39.948Z,59.82
2023-06-30T12:15:15.014Z,60.01
2023-06-30T12:17:47.951Z,60.56
2023-06-30T12:20:32.094Z,58.51
2023-06-30T12:23:05.695Z,58.54
2023-06-30T12:25:39.355Z,59.11
2023-06-30T12:28:13.704Z,59.04
2023-06-30T12:30:47.638Z,58.96
2023-06-30T12:33:24.477Z,58.80
2023-06-30T12:35:56.872Z,58.62
2023-06-30T12:38:29.256Z,60.08
2023-06-30T12:41:01.802Z,59.81
2023-06-30T12:43:35.055Z,60.53
2023-06-30T12:46:07.832Z,61.35
2023-06-30T12:48:40.234Z,60.80
2023-06-30T12:51:12.804Z,60.54
2023-06-30T12:53:45.365Z,60.98
2023-06-30T12:56:18.137Z,62.17
2023-06-30T12:58:50.976Z,63.05
2023-06-30T13:01:23.466Z,63.91
2023-06-30T13:03:55.729Z,63.61
2023-06-30T13:06:27.992Z,63.16
2023-06-30T13:09:00.218Z,63.83
2023-06-30T13:11:32.741Z,65.30
2023-06-30T13:14:05.094Z,65.63
2023-06-30T13:16:37.832Z,66.20
2023-06-30T13:19:10.194Z,65.76
2023-06-30T13:21:42.539Z,65.42
2023-06-30T13:24:14.899Z,65.22
2023-06-30T13:26:48.304Z,65.39
2023-06-30T13:29:20.694Z,65.64
2023-06-30T13:31:54.262Z,65.68
2023-06-30T13:34:26.494Z,65.71
2023-06-30T13:36:58.523Z,64.65
2023-06-30T13:39:30.844Z,64.61
2023-06-30T13:42:04.076Z,64.65
2023-06-30T13:44:37.479Z,64.59
2023-06-30T13:47:10.162Z,65.10
2023-06-30T13:49:42.624Z,64.34
2023-06-30T13:52:15.109Z,64.23
2023-06-30T13:54:47.321Z,62.70
2023-06-30T13:57:19.847Z,62.86
2023-06-30T13:59:52.870Z,62.01
2023-06-30T14:02:25.631Z,61.59
2023-06-30T14:04:59.430Z,61.65
2023-06-30T14:07:31.888Z,61.66
2023-06-30T14:10:05.604Z,61.70
2023-06-30T14:12:38.841Z,61.38
2023-06-30T14:15:12.908Z,60.22
2023-06-30T14:17:45.363Z,60.80
2023-06-30T14:20:17.781Z,60.62
2023-06-30T14:22:50.065Z,60.73
2023-06-30T14:25:24.253Z,60.23
2023-06-30T14:27:57.036Z,59.70
2023-06-30T14:30:33.560Z,59.52
2023-06-30T14:33:06.070Z,58.23
2023-06-30T14:35:38.880Z,58.65
2023-06-30T14:38:11.233Z,59.58
2023-06-30T14:40:43.501Z,59.07
2023-06-30T14:43:15.587Z,59.81
2023-06-30T14:45:47.996Z,60.10
2023-06-30T14:48:20.661Z,59.71
2023-06-30T14:50:53.218Z,60.34
2023-06-30T14:53:25.693Z,61.04
2023-06-30T14:55:58.894Z,60.88
2023-06-30T14:58:33.658Z,62.74
2023-06-30T15:01:06.136Z,63.65
2023-06-30T15:03:38.298Z,63.49
2023-06-30T15:06:10.795Z,64.95
2023-06-30T15:08:43.116Z,64.47
2023-06-30T15:11:15.194Z,64.35
2023-06-30T15:13:47.429Z,64.91
2023-06-30T15:16:19.977Z,66.08
2023-06-30T15:18:52.232Z,65.76
2023-06-30T15:21:24.798Z,65.49
2023-06-30T15:23:57.757Z,64.98
2023-06-30T15:26:29.978Z,65.70
2023-06-30T15:29:02.327Z,65.55
2023-06-30T15:31:34.749Z,64.99
2023-06-30T15:34:07.063Z,64.59
2023-06-30T15:36:39.374Z,65.38
2023-06-30T15:39:11.784Z,63.80
2023-06-30T15:41:44.366Z,63.93
2023-06-30T15:44:17.405Z,64.45
2023-06-30T15:46:49.722Z,64.18
2023-06-30T15:49:22.215Z,63.81
2023-06-30T15:51:54.588Z,64.21
2023-06-30T15:54:27.117Z,64.22
2023-06-30T15:56:59.435Z,64.04
2023-06-30T15:59:32.043Z,63.89
2023-06-30T16:02:04.811Z,64.03
2023-06-30T16:04:37.085Z,65.32
2023-06-30T16:07:10.056Z,65.35
2023-06-30T16:09:42.121Z,65.91
2023-06-30T16:12:14.786Z,66.03
2023-06-30T16:14:46.941Z,66.11
2023-06-30T16:17:19.581Z,66.35
2023-06-30T16:19:52.396Z,65.87
2023-06-30T16:22:24.995Z,65.12
2023-06-30T16:24:57.517Z,67.31
2023-06-30T16:27:30.401Z,68.71
2023-06-30T16:30:23.193Z,69.58
2023-06-30T16:32:58.106Z,69.91
2023-06-30T16:35:30.837Z,70.18
2023-06-30T16:38:03.335Z,70.12
2023-06-30T16:40:35.705Z,70.49
2023-06-30T16:43:08.320Z,70.41
2023-06-30T16:45:40.586Z,70.55
2023-06-30T16:48:12.831Z,71.00
2023-06-30T16:50:45.410Z,70.99
2023-06-30T16:53:17.543Z,71.43
2023-06-30T16:55:49.703Z,72.06
2023-06-30T16:58:22.292Z,71.73
2023-06-30T17:00:55.021Z,71.92
2023-06-30T17:03:28.235Z,71.95
2023-06-30T17:06:00.616Z,71.73
2023-06-30T17:08:32.998Z,71.66
2023-06-30T17:11:05.393Z,71.82
2023-06-30T17:13:37.644Z,71.92
2023-06-30T17:16:09.832Z,71.82
2023-06-30T17:18:42.172Z,72.16
2023-06-30T17:21:14.310Z,72.27
2023-06-30T17:23:46.721Z,72.14
2023-06-30T17:26:19.088Z,72.27
2023-06-30T17:28:51.561Z,72.73
2023-06-30T17:31:24.263Z,72.59
2023-06-30T17:33:56.830Z,72.56
2023-06-30T17:36:28.878Z,73.03
2023-06-30T17:39:01.130Z,73.00
2023-06-30T17:41:33.447Z,73.21
2023-06-30T17:44:06.085Z,73.05
2023-06-30T17:46:38.552Z,73.39
2023-06-30T17:49:25.147Z,73.76
2023-06-30T17:51:58.001Z,73.63
2023-06-30T17:54:31.318Z,73.68
2023-06-30T17:57:03.915Z,73.71
2023-06-30T17:59:36.188Z,74.11
2023-06-30T18:02:09.244Z,75.05
2023-06-30T18:04:42.250Z,74.30
2023-06-30T18:07:14.975Z,73.72
2023-06-30T18:09:47.690Z,73.90
2023-06-30T18:12:19.939Z,74.96
2023-06-30T18:14:52.395Z,75.75
2023-06-30T18:17:24.650Z,74.73
2023-06-30T18:19:57.154Z,74.75
2023-06-30T18:22:29.381Z,74.61
2023-06-30T18:25:01.902Z,74.76
2023-06-30T18:27:34.317Z,74.74
2023-06-30T18:30:08.344Z,74.77
2023-06-30T18:32:40.754Z,74.98
2023-06-30T18:35:13.375Z,75.18
2023-06-30T18:37:45.612Z,75.60
2023-06-30T18:40:18.098Z,75.74
2023-06-30T18:42:52.062Z,75.70
2023-06-30T18:45:24.285Z,76.27
2023-06-30T18:47:56.634Z,76.39
2023-06-30T18:50:29.012Z,76.76
2023-06-30T18:53:01.033Z,77.49
2023-06-30T18:55:33.499Z,78.19
2023-06-30T18:58:05.636Z,78.61
2023-06-30T19:00:38.148Z,78.83
2023-06-30T19:03:12.953Z,79.99
2023-06-30T19:05:46.196Z,80.72
2023-06-30T19:08:18.748Z,81.01
2023-06-30T19:10:52.413Z,81.95
2023-06-30T19:13:25.448Z,82.36
2023-06-30T19:15:57.861Z,82.05
2023-06-30T19:18:30.202Z,82.29
2023-06-30T19:21:02.815Z,81.98
2023-06-30T19:23:37.171Z,81.71
2023-06-30T19:26:10.519Z,82.14
2023-06-30T19:28:44.438Z,82.34
2023-06-30T19:31:16.851Z,82.33
2023-06-30T19:33:49.616Z,81.74
2023-06-30T19:36:22.708Z,81.64
2023-06-30T19:38:55.090Z,81.40
2023-06-30T19:41:28.068Z,81.55
2023-06-30T19:44:00.622Z,81.77
2023-06-30T19:46:34.608Z,81.88
2023-06-30T19:49:07.510Z,82.01
2023-06-30T19:51:39.966Z,82.04
2023-06-30T19:54:12.645Z,81.66
2023-06-30T19:56:44.968Z,81.55
2023-06-30T19:59:17.196Z,81.65
2023-06-30T20:01:49.995Z,81.91
2023-06-30T20:04:23.232Z,81.56
2023-06-30T20:06:56.357Z,81.91
2023-06-30T20:09:28.799Z,81.88
2023-06-30T20:12:01.313Z,81.57
2023-06-30T20:14:33.610Z,81.52
2023-06-30T20:17:08.966Z,81.64
2023-06-30T20:19:43.716Z,81.44
2023-06-30T20:22:15.984Z,81.56
2023-06-30T20:24:48.357Z,81.42
2023-06-30T20:27:20.759Z,81.22
2023-06-30T20:29:54.660Z,80.69
2023-06-30T20:32:27.183Z,81.01
2023-06-30T20:34:59.833Z,80.92
2023-06-30T20:37:32.691Z,80.54
2023-06-30T20:40:05.567Z,80.67
2023-06-30T20:42:37.864Z,80.86
2023-06-30T20:45:11.621Z,80.95
2023-06-30T20:47:44.097Z,80.93
2023-06-30T20:50:16.631Z,80.74
2023-06-30T20:52:49.164Z,80.71
2023-06-30T20:55:21.389Z,80.65
2023-06-30T20:57:54.589Z,80.71
2023-06-30T21:00:27.046Z,80.70
2023-06-30T21:02:59.441Z,80.81
2023-06-30T21:05:32.015Z,81.05
2023-06-30T21:08:04.661Z,81.22
2023-06-30T21:10:37.037Z,81.20
2023-06-30T21:13:09.369Z,80.79
2023-06-30T21:15:41.564Z,80.97
2023-06-30T21:18:13.893Z,81.40
2023-06-30T21:20:46.458Z,81.79
2023-06-30T21:23:19.400Z,81.81
2023-06-30T21:25:51.644Z,82.30
2023-06-30T21:28:23.961Z,82.12
2023-06-30T21:30:58.522Z,82.41
2023-06-30T21:33:31.010Z,82.54
2023-06-30T21:36:04.781Z,82.34
2023-06-30T21:38:37.170Z,82.45
2023-06-30T21:41:09.690Z,82.47
2023-06-30T21:44:00.707Z,82.40
2023-06-30T21:46:33.331Z,82.55
2023-06-30T21:49:07.121Z,82.45
2023-06-30T21:51:39.326Z,82.26
2023-06-30T21:54:11.721Z,82.18
2023-06-30T21:56:44.502Z,82.18
2023-06-30T21:59:17.045Z,82.18
2023-06-30T22:01:49.683Z,82.04
2023-06-30T22:04:21.977Z,82.06
2023-06-30T22:06:54.620Z,81.90
2023-06-30T22:09:27.308Z,81.94
2023-06-30T22:11:59.577Z,82.07
2023-06-30T22:14:31.940Z,82.02
2023-06-30T22:17:04.214Z,82.10
2023-06-30T22:19:38.332Z,81.93
2023-06-30T22:22:10.931Z,81.92
2023-06-30T22:24:43.463Z,81.81
2023-06-30T22:27:15.773Z,81.89
2023-06-30T22:29:48.008Z,81.75
2023-06-30T22:32:20.191Z,81.76
2023-06-30T22:34:52.610Z,81.89
2023-06-30T22:37:25.033Z,81.85
2023-06-30T22:39:57.465Z,81.77
2023-06-30T22:42:29.743Z,81.67
2023-06-30T22:45:04.785Z,81.63
2023-06-30T22:47:37.456Z,81.69
2023-06-30T22:50:11.312Z,81.69
2023-06-30T22:52:43.636Z,81.63
2023-06-30T22:55:15.987Z,81.89
2023-06-30T22:57:48.345Z,81.79
2023-06-30T23:00:21.747Z,81.78
2023-06-30T23:02:54.573Z,82.29
2023-06-30T23:05:27.167Z,82.81
2023-06-30T23:07:59.478Z,82.81
2023-06-30T23:10:32.139Z,82.96
2023-06-30T23:13:04.441Z,83.34
2023-06-30T23:15:36.838Z,83.13
2023-06-30T23:18:09.710Z,83.46
2023-06-30T23:20:42.805Z,83.81
2023-06-30T23:23:15.133Z,83.68
2023-06-30T23:25:47.419Z,83.43
2023-06-30T23:28:21.990Z,83.15
2023-06-30T23:30:56.648Z,83.24
2023-06-30T23:33:29.114Z,83.36
2023-06-30T23:36:01.538Z,83.39
2023-06-30T23:38:33.929Z,83.43
2023-06-30T23:41:06.594Z,83.42
2023-06-30T23:43:39.197Z,83.50
2023-06-30T23:46:20.129Z,83.70
2023-06-30T23:48:53.906Z,83.87
2023-06-30T23:51:26.221Z,84.21
2023-06-30T23:53:58.835Z,84.02
2023-06-30T23:56:31.165Z,83.94
2023-06-30T23:59:03.303Z,83.45
